Terminal Aerodrome Forecast
Issued by NWS

Home | Current Version | Previous Version | Text Only | Print | Product List | Glossary On
Versions: 1 2 3 4 5 6 7 8 9 10 11 12 13 14
000
FTUS45 KABQ 252324
TAFFMN
TAF
KFMN 252324Z 2600/2624 30015G25KT P6SM VCSH BKN050
     FM260300 30015KT P6SM SCT040
     FM260600 29009KT P6SM FEW035
     FM261600 28013G23KT P6SM SCT040
     FM261900 29018G30KT P6SM SCT050=

USA.gov is the U.S. government's official web portal to all federal, state and local government web resources and services.